sensor_id;sensor_type;location;lat;lon;timestamp;pressure;altitude;pressure_sealevel;temperature;humidity
20752;BME280;10536;51.582;5.016;2022-10-20T00:03:52;101667.69;;;14.12;100.00
20752;BME280;10536;51.582;5.016;2022-10-20T00:08:54;101666.97;;;13.99;100.00
20752;BME280;10536;51.582;5.016;2022-10-20T00:13:56;101669.09;;;13.71;100.00
20752;BME280;10536;51.582;5.016;2022-10-20T00:18:57;101657.03;;;13.64;100.00
20752;BME280;10536;51.582;5.016;2022-10-20T00:23:59;101650.16;;;13.61;100.00
20752;BME280;10536;51.582;5.016;2022-10-20T00:29:01;101651.59;;;13.82;100.00
20752;BME280;10536;51.582;5.016;2022-10-20T00:34:02;101645.53;;;13.83;100.00
20752;BME280;10536;51.582;5.016;2022-10-20T00:39:04;101647.16;;;13.91;100.00
20752;BME280;10536;51.582;5.016;2022-10-20T00:45:08;101639.81;;;14.20;100.00
20752;BME280;10536;51.582;5.016;2022-10-20T00:49:48;101624.50;;;13.99;100.00
20752;BME280;10536;51.582;5.016;2022-10-20T00:54:49;101615.81;;;14.00;100.00
20752;BME280;10536;51.582;5.016;2022-10-20T00:59:50;101615.06;;;13.93;100.00
20752;BME280;10536;51.582;5.016;2022-10-20T01:04:50;101609.84;;;13.93;100.00
20752;BME280;10536;51.582;5.016;2022-10-20T01:09:51;101588.28;;;13.87;100.00
20752;BME280;10536;51.582;5.016;2022-10-20T01:14:59;101584.97;;;13.75;100.00
20752;BME280;10536;51.582;5.016;2022-10-20T01:30:52;101590.09;;;13.78;100.00
20752;BME280;10536;51.582;5.016;2022-10-20T01:36:04;101577.00;;;13.86;100.00
20752;BME280;10536;51.582;5.016;2022-10-20T01:41:14;101576.25;;;13.79;100.00
20752;BME280;10536;51.582;5.016;2022-10-20T01:46:18;101555.59;;;13.69;100.00
20752;BME280;10536;51.582;5.016;2022-10-20T01:51:20;101551.19;;;13.75;100.00
20752;BME280;10536;51.582;5.016;2022-10-20T01:56:43;101554.50;;;13.85;100.00
20752;BME280;10536;51.582;5.016;2022-10-20T02:02:04;101547.56;;;13.84;100.00
20752;BME280;10536;51.582;5.016;2022-10-20T02:07:30;101536.34;;;13.80;100.00
20752;BME280;10536;51.582;5.016;2022-10-20T02:12:36;101519.13;;;13.73;100.00
20752;BME280;10536;51.582;5.016;2022-10-20T02:17:39;101503.31;;;13.87;100.00
20752;BME280;10536;51.582;5.016;2022-10-20T02:22:41;101495.88;;;13.62;100.00
20752;BME280;10536;51.582;5.016;2022-10-20T02:27:45;101486.09;;;13.80;100.00
20752;BME280;10536;51.582;5.016;2022-10-20T02:32:49;101476.16;;;14.03;100.00
20752;BME280;10536;51.582;5.016;2022-10-20T02:37:51;101459.69;;;14.05;100.00
20752;BME280;10536;51.582;5.016;2022-10-20T02:42:52;101441.38;;;14.09;100.00
20752;BME280;10536;51.582;5.016;2022-10-20T02:47:52;101439.56;;;14.14;100.00
20752;BME280;10536;51.582;5.016;2022-10-20T02:52:53;101430.94;;;14.12;100.00
20752;BME280;10536;51.582;5.016;2022-10-20T02:57:53;101431.97;;;14.02;100.00
20752;BME280;10536;51.582;5.016;2022-10-20T03:02:54;101424.09;;;14.07;100.00
20752;BME280;10536;51.582;5.016;2022-10-20T03:07:54;101403.97;;;14.16;100.00
20752;BME280;10536;51.582;5.016;2022-10-20T03:12:54;101396.09;;;14.19;100.00
20752;BME280;10536;51.582;5.016;2022-10-20T03:17:55;101418.13;;;14.00;100.00
20752;BME280;10536;51.582;5.016;2022-10-20T03:22:55;101405.69;;;14.17;100.00
20752;BME280;10536;51.582;5.016;2022-10-20T03:27:56;101398.69;;;14.19;100.00
20752;BME280;10536;51.582;5.016;2022-10-20T03:32:56;101379.72;;;14.16;100.00
20752;BME280;10536;51.582;5.016;2022-10-20T03:37:57;101379.50;;;14.27;100.00
20752;BME280;10536;51.582;5.016;2022-10-20T03:42:57;101378.81;;;14.17;100.00
20752;BME280;10536;51.582;5.016;2022-10-20T03:47:58;101367.44;;;14.22;100.00
20752;BME280;10536;51.582;5.016;2022-10-20T03:52:58;101356.03;;;14.30;100.00
20752;BME280;10536;51.582;5.016;2022-10-20T03:57:58;101351.81;;;14.24;100.00
20752;BME280;10536;51.582;5.016;2022-10-20T04:02:59;101350.53;;;14.44;100.00
20752;BME280;10536;51.582;5.016;2022-10-20T04:07:59;101347.16;;;14.38;100.00
20752;BME280;10536;51.582;5.016;2022-10-20T04:13:00;101328.09;;;14.38;100.00
20752;BME280;10536;51.582;5.016;2022-10-20T04:18:01;101332.72;;;14.23;100.00
20752;BME280;10536;51.582;5.016;2022-10-20T04:23:01;101322.97;;;14.33;100.00
20752;BME280;10536;51.582;5.016;2022-10-20T04:28:02;101322.28;;;14.25;100.00
20752;BME280;10536;51.582;5.016;2022-10-20T04:33:02;101320.16;;;14.44;100.00
20752;BME280;10536;51.582;5.016;2022-10-20T04:38:03;101340.56;;;14.66;100.00
20752;BME280;10536;51.582;5.016;2022-10-20T04:43:03;101341.41;;;14.66;100.00
20752;BME280;10536;51.582;5.016;2022-10-20T04:48:04;101317.16;;;14.64;100.00
20752;BME280;10536;51.582;5.016;2022-10-20T04:53:05;101300.47;;;14.73;100.00
20752;BME280;10536;51.582;5.016;2022-10-20T04:58:05;101296.09;;;14.75;100.00
20752;BME280;10536;51.582;5.016;2022-10-20T05:03:06;101309.97;;;14.75;100.00
20752;BME280;10536;51.582;5.016;2022-10-20T05:08:06;101296.00;;;14.78;100.00
20752;BME280;10536;51.582;5.016;2022-10-20T05:13:07;101278.47;;;14.86;100.00
20752;BME280;10536;51.582;5.016;2022-10-20T05:18:07;101251.53;;;14.87;100.00
20752;BME280;10536;51.582;5.016;2022-10-20T05:23:07;101258.84;;;14.71;100.00
20752;BME280;10536;51.582;5.016;2022-10-20T05:28:08;101276.06;;;14.78;100.00
20752;BME280;10536;51.582;5.016;2022-10-20T05:33:08;101257.69;;;14.83;100.00
20752;BME280;10536;51.582;5.016;2022-10-20T05:38:10;101252.84;;;14.68;100.00
20752;BME280;10536;51.582;5.016;2022-10-20T05:43:10;101260.25;;;14.86;100.00
20752;BME280;10536;51.582;5.016;2022-10-20T05:48:10;101267.16;;;14.87;100.00
20752;BME280;10536;51.582;5.016;2022-10-20T05:53:11;101264.19;;;14.67;100.00
20752;BME280;10536;51.582;5.016;2022-10-20T05:58:12;101262.34;;;14.70;100.00
20752;BME280;10536;51.582;5.016;2022-10-20T06:03:13;101257.44;;;14.56;100.00
20752;BME280;10536;51.582;5.016;2022-10-20T06:08:13;101239.16;;;14.59;100.00
20752;BME280;10536;51.582;5.016;2022-10-20T06:13:13;101252.78;;;14.71;100.00
20752;BME280;10536;51.582;5.016;2022-10-20T06:18:14;101259.34;;;14.87;100.00
20752;BME280;10536;51.582;5.016;2022-10-20T06:23:14;101259.66;;;14.73;100.00
20752;BME280;10536;51.582;5.016;2022-10-20T06:28:15;101249.94;;;14.80;100.00
20752;BME280;10536;51.582;5.016;2022-10-20T06:33:15;101241.88;;;14.92;100.00
20752;BME280;10536;51.582;5.016;2022-10-20T06:38:16;101235.25;;;15.13;100.00
20752;BME280;10536;51.582;5.016;2022-10-20T06:43:16;101231.31;;;15.31;100.00
20752;BME280;10536;51.582;5.016;2022-10-20T06:48:17;101239.69;;;15.43;100.00
20752;BME280;10536;51.582;5.016;2022-10-20T06:53:17;101222.25;;;15.45;100.00
20752;BME280;10536;51.582;5.016;2022-10-20T06:58:17;101222.75;;;15.59;100.00
20752;BME280;10536;51.582;5.016;2022-10-20T07:03:18;101228.00;;;15.57;100.00
20752;BME280;10536;51.582;5.016;2022-10-20T07:08:18;101226.06;;;15.64;100.00
20752;BME280;10536;51.582;5.016;2022-10-20T07:13:19;101216.56;;;15.63;100.00
20752;BME280;10536;51.582;5.016;2022-10-20T07:18:20;101243.56;;;15.28;100.00
20752;BME280;10536;51.582;5.016;2022-10-20T07:23:20;101232.22;;;15.63;100.00
20752;BME280;10536;51.582;5.016;2022-10-20T07:28:20;101236.69;;;15.58;100.00
20752;BME280;10536;51.582;5.016;2022-10-20T07:33:21;101246.00;;;15.67;100.00
20752;BME280;10536;51.582;5.016;2022-10-20T07:38:22;101240.28;;;15.87;100.00
20752;BME280;10536;51.582;5.016;2022-10-20T07:43:22;101238.47;;;15.89;100.00
20752;BME280;10536;51.582;5.016;2022-10-20T07:48:23;101239.59;;;16.10;100.00
20752;BME280;10536;51.582;5.016;2022-10-20T07:53:23;101236.75;;;16.19;100.00
20752;BME280;10536;51.582;5.016;2022-10-20T07:58:23;101231.28;;;16.27;100.00
20752;BME280;10536;51.582;5.016;2022-10-20T08:03:24;101235.34;;;16.35;100.00
20752;BME280;10536;51.582;5.016;2022-10-20T08:08:24;101230.88;;;16.41;100.00
20752;BME280;10536;51.582;5.016;2022-10-20T08:13:26;101245.31;;;16.23;100.00
20752;BME280;10536;51.582;5.016;2022-10-20T08:18:27;101229.97;;;16.40;100.00
20752;BME280;10536;51.582;5.016;2022-10-20T08:23:27;101221.53;;;16.32;100.00
20752;BME280;10536;51.582;5.016;2022-10-20T08:28:27;101220.53;;;16.36;100.00
20752;BME280;10536;51.582;5.016;2022-10-20T08:33:28;101237.09;;;16.63;100.00
20752;BME280;10536;51.582;5.016;2022-10-20T08:38:28;101219.38;;;16.73;100.00
20752;BME280;10536;51.582;5.016;2022-10-20T08:43:30;101202.91;;;16.71;100.00
20752;BME280;10536;51.582;5.016;2022-10-20T08:48:32;101188.81;;;17.03;100.00
20752;BME280;10536;51.582;5.016;2022-10-20T08:53:37;101182.13;;;17.20;100.00
20752;BME280;10536;51.582;5.016;2022-10-20T08:58:43;101184.44;;;17.29;100.00
20752;BME280;10536;51.582;5.016;2022-10-20T09:03:53;101185.59;;;17.45;100.00
20752;BME280;10536;51.582;5.016;2022-10-20T09:08:56;101198.56;;;17.48;100.00
20752;BME280;10536;51.582;5.016;2022-10-20T09:13:57;101193.75;;;17.85;100.00
20752;BME280;10536;51.582;5.016;2022-10-20T09:18:59;101193.41;;;17.94;100.00
20752;BME280;10536;51.582;5.016;2022-10-20T09:24:03;101174.13;;;17.96;100.00
20752;BME280;10536;51.582;5.016;2022-10-20T09:29:13;101177.38;;;18.03;100.00
20752;BME280;10536;51.582;5.016;2022-10-20T09:34:31;101186.41;;;18.40;100.00
20752;BME280;10536;51.582;5.016;2022-10-20T09:39:51;101218.78;;;18.15;100.00
20752;BME280;10536;51.582;5.016;2022-10-20T09:44:59;101197.66;;;18.20;100.00
20752;BME280;10536;51.582;5.016;2022-10-20T09:50:03;101193.22;;;18.22;100.00
20752;BME280;10536;51.582;5.016;2022-10-20T09:55:24;101178.13;;;18.29;100.00
20752;BME280;10536;51.582;5.016;2022-10-20T10:00:45;101194.81;;;18.26;100.00
20752;BME280;10536;51.582;5.016;2022-10-20T10:05:55;101190.16;;;18.33;100.00
20752;BME280;10536;51.582;5.016;2022-10-20T10:10:59;101164.91;;;18.32;100.00
20752;BME280;10536;51.582;5.016;2022-10-20T10:16:08;101156.00;;;18.14;100.00
20752;BME280;10536;51.582;5.016;2022-10-20T10:21:13;101148.69;;;18.00;100.00
20752;BME280;10536;51.582;5.016;2022-10-20T10:31:56;101113.13;;;17.94;100.00
20752;BME280;10536;51.582;5.016;2022-10-20T10:36:57;101109.19;;;17.83;100.00
20752;BME280;10536;51.582;5.016;2022-10-20T11:08:42;101094.22;;;17.88;100.00
20752;BME280;10536;51.582;5.016;2022-10-20T11:19:33;101088.09;;;17.89;100.00
20752;BME280;10536;51.582;5.016;2022-10-20T11:29:55;101073.28;;;17.88;100.00
20752;BME280;10536;51.582;5.016;2022-10-20T11:40:27;101074.25;;;18.07;100.00
20752;BME280;10536;51.582;5.016;2022-10-20T11:45:45;101076.38;;;18.20;100.00
20752;BME280;10536;51.582;5.016;2022-10-20T11:51:00;101072.75;;;18.44;100.00
20752;BME280;10536;51.582;5.016;2022-10-20T11:56:13;101078.81;;;18.45;100.00
20752;BME280;10536;51.582;5.016;2022-10-20T12:01:29;101083.19;;;18.24;100.00
20752;BME280;10536;51.582;5.016;2022-10-20T12:06:49;101084.91;;;18.25;100.00
20752;BME280;10536;51.582;5.016;2022-10-20T12:11:58;101082.44;;;18.42;100.00
20752;BME280;10536;51.582;5.016;2022-10-20T12:17:11;101065.13;;;18.81;100.00
20752;BME280;10536;51.582;5.016;2022-10-20T12:27:21;101046.88;;;19.17;100.00
20752;BME280;10536;51.582;5.016;2022-10-20T12:33:08;101048.66;;;19.17;100.00
20752;BME280;10536;51.582;5.016;2022-10-20T12:38:16;101038.44;;;19.29;100.00
20752;BME280;10536;51.582;5.016;2022-10-20T12:48:32;101032.50;;;19.83;100.00
20752;BME280;10536;51.582;5.016;2022-10-20T12:53:34;101021.78;;;20.05;100.00
20752;BME280;10536;51.582;5.016;2022-10-20T12:59:05;101011.72;;;20.48;100.00
20752;BME280;10536;51.582;5.016;2022-10-20T13:03:56;101026.41;;;20.52;100.00
20752;BME280;10536;51.582;5.016;2022-10-20T13:14:16;101001.41;;;20.62;100.00
20752;BME280;10536;51.582;5.016;2022-10-20T13:19:37;100986.34;;;20.31;100.00
20752;BME280;10536;51.582;5.016;2022-10-20T13:24:41;100987.09;;;20.33;100.00
20752;BME280;10536;51.582;5.016;2022-10-20T13:29:45;100977.16;;;20.56;100.00
20752;BME280;10536;51.582;5.016;2022-10-20T13:34:56;100972.56;;;20.61;100.00
20752;BME280;10536;51.582;5.016;2022-10-20T13:40:44;100972.31;;;20.48;100.00
20752;BME280;10536;51.582;5.016;2022-10-20T13:55:30;100963.97;;;20.90;100.00
20752;BME280;10536;51.582;5.016;2022-10-20T14:01:03;100967.69;;;20.86;100.00
20752;BME280;10536;51.582;5.016;2022-10-20T14:06:04;100954.22;;;21.08;100.00
20752;BME280;10536;51.582;5.016;2022-10-20T14:11:04;100946.41;;;21.07;100.00
20752;BME280;10536;51.582;5.016;2022-10-20T14:16:16;100947.78;;;21.14;100.00
20752;BME280;10536;51.582;5.016;2022-10-20T14:21:18;100942.16;;;21.20;100.00
20752;BME280;10536;51.582;5.016;2022-10-20T14:26:20;100948.03;;;21.25;100.00
20752;BME280;10536;51.582;5.016;2022-10-20T14:31:23;100954.75;;;21.15;100.00
20752;BME280;10536;51.582;5.016;2022-10-20T14:36:26;100942.34;;;21.01;100.00
20752;BME280;10536;51.582;5.016;2022-10-20T14:41:32;100929.09;;;21.03;100.00
20752;BME280;10536;51.582;5.016;2022-10-20T14:46:36;100927.41;;;21.02;100.00
20752;BME280;10536;51.582;5.016;2022-10-20T14:51:40;100927.03;;;21.40;100.00
20752;BME280;10536;51.582;5.016;2022-10-20T15:07:16;100926.78;;;21.60;100.00
20752;BME280;10536;51.582;5.016;2022-10-20T15:17:41;100915.63;;;21.25;100.00
20752;BME280;10536;51.582;5.016;2022-10-20T15:22:42;100910.53;;;20.90;100.00
20752;BME280;10536;51.582;5.016;2022-10-20T15:27:42;100913.72;;;20.63;100.00
20752;BME280;10536;51.582;5.016;2022-10-20T15:32:43;100920.84;;;20.61;100.00
20752;BME280;10536;51.582;5.016;2022-10-20T15:37:47;100910.41;;;20.60;100.00
20752;BME280;10536;51.582;5.016;2022-10-20T15:42:48;100918.91;;;20.65;100.00
20752;BME280;10536;51.582;5.016;2022-10-20T15:47:49;100918.59;;;20.54;100.00
20752;BME280;10536;51.582;5.016;2022-10-20T15:52:49;100919.84;;;20.46;100.00
20752;BME280;10536;51.582;5.016;2022-10-20T15:57:51;100907.97;;;20.39;100.00
20752;BME280;10536;51.582;5.016;2022-10-20T16:02:53;100913.19;;;20.23;100.00
20752;BME280;10536;51.582;5.016;2022-10-20T16:07:54;100910.25;;;20.12;100.00
20752;BME280;10536;51.582;5.016;2022-10-20T16:12:56;100915.66;;;20.09;100.00
20752;BME280;10536;51.582;5.016;2022-10-20T16:17:57;100912.94;;;20.28;100.00
20752;BME280;10536;51.582;5.016;2022-10-20T16:22:58;100910.09;;;19.98;100.00
20752;BME280;10536;51.582;5.016;2022-10-20T16:27:58;100909.50;;;19.92;100.00
20752;BME280;10536;51.582;5.016;2022-10-20T16:33:02;100918.59;;;19.85;100.00
20752;BME280;10536;51.582;5.016;2022-10-20T16:38:02;100923.47;;;19.93;100.00
20752;BME280;10536;51.582;5.016;2022-10-20T16:43:03;100919.84;;;19.96;100.00
20752;BME280;10536;51.582;5.016;2022-10-20T16:48:04;100925.91;;;19.61;100.00
20752;BME280;10536;51.582;5.016;2022-10-20T16:53:04;100919.41;;;19.51;100.00
20752;BME280;10536;51.582;5.016;2022-10-20T16:58:05;100915.63;;;19.57;100.00
20752;BME280;10536;51.582;5.016;2022-10-20T17:03:05;100914.19;;;19.86;100.00
20752;BME280;10536;51.582;5.016;2022-10-20T17:08:07;100914.00;;;19.54;100.00
20752;BME280;10536;51.582;5.016;2022-10-20T17:13:07;100906.38;;;19.49;100.00
20752;BME280;10536;51.582;5.016;2022-10-20T17:18:09;100904.56;;;19.32;100.00
20752;BME280;10536;51.582;5.016;2022-10-20T17:23:10;100899.66;;;19.44;100.00
20752;BME280;10536;51.582;5.016;2022-10-20T17:28:11;100885.63;;;19.08;100.00
20752;BME280;10536;51.582;5.016;2022-10-20T17:33:11;100882.34;;;19.22;100.00
20752;BME280;10536;51.582;5.016;2022-10-20T17:38:12;100887.69;;;19.38;100.00
20752;BME280;10536;51.582;5.016;2022-10-20T17:43:13;100881.50;;;19.22;100.00
20752;BME280;10536;51.582;5.016;2022-10-20T17:48:14;100892.59;;;18.90;100.00
20752;BME280;10536;51.582;5.016;2022-10-20T17:53:14;100886.53;;;19.07;100.00
20752;BME280;10536;51.582;5.016;2022-10-20T17:58:15;100884.19;;;19.01;100.00
20752;BME280;10536;51.582;5.016;2022-10-20T18:03:15;100887.91;;;18.97;100.00
20752;BME280;10536;51.582;5.016;2022-10-20T18:08:16;100885.91;;;19.02;100.00
20752;BME280;10536;51.582;5.016;2022-10-20T18:13:16;100896.66;;;18.96;100.00
20752;BME280;10536;51.582;5.016;2022-10-20T18:18:17;100887.13;;;18.95;100.00
20752;BME280;10536;51.582;5.016;2022-10-20T18:23:17;100883.13;;;19.05;100.00
20752;BME280;10536;51.582;5.016;2022-10-20T18:28:18;100893.06;;;18.80;100.00
20752;BME280;10536;51.582;5.016;2022-10-20T18:33:19;100883.66;;;18.94;100.00
20752;BME280;10536;51.582;5.016;2022-10-20T18:38:19;100885.03;;;19.02;100.00
20752;BME280;10536;51.582;5.016;2022-10-20T18:43:20;100889.44;;;19.20;100.00
20752;BME280;10536;51.582;5.016;2022-10-20T18:48:20;100875.84;;;19.29;100.00
20752;BME280;10536;51.582;5.016;2022-10-20T18:53:21;100875.91;;;19.10;100.00
20752;BME280;10536;51.582;5.016;2022-10-20T18:58:22;100869.91;;;18.89;100.00
20752;BME280;10536;51.582;5.016;2022-10-20T19:03:22;100872.44;;;19.10;100.00
20752;BME280;10536;51.582;5.016;2022-10-20T19:08:23;100873.81;;;19.17;100.00
20752;BME280;10536;51.582;5.016;2022-10-20T19:13:25;100859.75;;;19.20;100.00
20752;BME280;10536;51.582;5.016;2022-10-20T19:18:27;100841.59;;;19.15;100.00
20752;BME280;10536;51.582;5.016;2022-10-20T19:23:30;100854.88;;;19.12;100.00
20752;BME280;10536;51.582;5.016;2022-10-20T19:28:34;100841.84;;;18.91;100.00
20752;BME280;10536;51.582;5.016;2022-10-20T19:33:35;100813.09;;;18.90;100.00
20752;BME280;10536;51.582;5.016;2022-10-20T19:38:35;100807.41;;;18.99;100.00
20752;BME280;10536;51.582;5.016;2022-10-20T19:43:37;100805.47;;;18.85;100.00
20752;BME280;10536;51.582;5.016;2022-10-20T19:48:37;100797.78;;;19.00;100.00
20752;BME280;10536;51.582;5.016;2022-10-20T19:53:38;100795.81;;;18.86;100.00
20752;BME280;10536;51.582;5.016;2022-10-20T19:58:39;100779.50;;;18.81;100.00
20752;BME280;10536;51.582;5.016;2022-10-20T20:03:40;100786.75;;;18.93;100.00
20752;BME280;10536;51.582;5.016;2022-10-20T20:08:43;100793.25;;;18.84;100.00
20752;BME280;10536;51.582;5.016;2022-10-20T20:13:44;100800.00;;;18.71;100.00
20752;BME280;10536;51.582;5.016;2022-10-20T20:18:45;100798.94;;;18.75;100.00
20752;BME280;10536;51.582;5.016;2022-10-20T20:23:46;100801.38;;;18.42;100.00
20752;BME280;10536;51.582;5.016;2022-10-20T20:28:46;100786.22;;;18.48;100.00
20752;BME280;10536;51.582;5.016;2022-10-20T20:33:47;100802.88;;;18.65;100.00
20752;BME280;10536;51.582;5.016;2022-10-20T20:38:48;100807.13;;;18.86;100.00
20752;BME280;10536;51.582;5.016;2022-10-20T20:43:48;100816.69;;;18.68;100.00
20752;BME280;10536;51.582;5.016;2022-10-20T20:48:49;100804.44;;;18.88;100.00
20752;BME280;10536;51.582;5.016;2022-10-20T20:53:50;100810.31;;;18.74;100.00
20752;BME280;10536;51.582;5.016;2022-10-20T20:58:51;100817.63;;;18.67;100.00
20752;BME280;10536;51.582;5.016;2022-10-20T21:03:53;100819.19;;;18.52;100.00
20752;BME280;10536;51.582;5.016;2022-10-20T21:08:54;100807.88;;;18.71;100.00
20752;BME280;10536;51.582;5.016;2022-10-20T21:13:56;100820.53;;;18.23;100.00
20752;BME280;10536;51.582;5.016;2022-10-20T21:19:00;100790.97;;;18.40;100.00
20752;BME280;10536;51.582;5.016;2022-10-20T21:24:01;100797.94;;;18.59;100.00
20752;BME280;10536;51.582;5.016;2022-10-20T21:29:03;100798.38;;;18.11;100.00
20752;BME280;10536;51.582;5.016;2022-10-20T21:34:04;100820.63;;;17.81;100.00
20752;BME280;10536;51.582;5.016;2022-10-20T21:39:06;100812.63;;;17.63;100.00
20752;BME280;10536;51.582;5.016;2022-10-20T21:44:07;100819.19;;;17.73;100.00
20752;BME280;10536;51.582;5.016;2022-10-20T21:49:11;100818.47;;;17.70;100.00
20752;BME280;10536;51.582;5.016;2022-10-20T21:54:15;100808.31;;;17.83;100.00
20752;BME280;10536;51.582;5.016;2022-10-20T21:59:27;100805.53;;;18.27;100.00
20752;BME280;10536;51.582;5.016;2022-10-20T22:04:28;100801.97;;;18.28;100.00
20752;BME280;10536;51.582;5.016;2022-10-20T22:09:29;100813.34;;;18.08;100.00
20752;BME280;10536;51.582;5.016;2022-10-20T22:14:30;100807.28;;;18.07;100.00
20752;BME280;10536;51.582;5.016;2022-10-20T22:19:30;100796.41;;;18.17;100.00
20752;BME280;10536;51.582;5.016;2022-10-20T22:24:30;100789.31;;;18.19;100.00
20752;BME280;10536;51.582;5.016;2022-10-20T22:29:34;100785.50;;;18.07;100.00
20752;BME280;10536;51.582;5.016;2022-10-20T22:34:35;100788.16;;;18.05;100.00
20752;BME280;10536;51.582;5.016;2022-10-20T22:39:35;100783.09;;;17.82;100.00
20752;BME280;10536;51.582;5.016;2022-10-20T22:44:36;100793.31;;;17.88;100.00
20752;BME280;10536;51.582;5.016;2022-10-20T22:49:36;100771.91;;;17.99;100.00
20752;BME280;10536;51.582;5.016;2022-10-20T22:54:36;100778.47;;;18.07;100.00
20752;BME280;10536;51.582;5.016;2022-10-20T22:59:37;100777.00;;;18.21;100.00
20752;BME280;10536;51.582;5.016;2022-10-20T23:04:37;100772.69;;;18.20;100.00
20752;BME280;10536;51.582;5.016;2022-10-20T23:09:38;100766.16;;;18.09;100.00
20752;BME280;10536;51.582;5.016;2022-10-20T23:14:38;100779.69;;;18.19;100.00
20752;BME280;10536;51.582;5.016;2022-10-20T23:19:39;100792.56;;;18.43;100.00
20752;BME280;10536;51.582;5.016;2022-10-20T23:24:39;100782.50;;;18.33;100.00
20752;BME280;10536;51.582;5.016;2022-10-20T23:29:40;100791.78;;;18.41;100.00
20752;BME280;10536;51.582;5.016;2022-10-20T23:34:40;100794.34;;;18.61;100.00
20752;BME280;10536;51.582;5.016;2022-10-20T23:39:41;100807.72;;;18.17;100.00
20752;BME280;10536;51.582;5.016;2022-10-20T23:44:41;100800.78;;;18.35;100.00
20752;BME280;10536;51.582;5.016;2022-10-20T23:49:42;100801.63;;;18.35;100.00
20752;BME280;10536;51.582;5.016;2022-10-20T23:54:42;100804.75;;;18.25;100.00
20752;BME280;10536;51.582;5.016;2022-10-20T23:59:43;100800.06;;;18.12;100.00
